createdAt,value
2023-02-20T00:00:30.184Z,100245.44
2023-02-20T00:02:58.041Z,100250.66
2023-02-20T00:05:25.632Z,100248.59
2023-02-20T00:07:53.057Z,100259.25
2023-02-20T00:10:20.755Z,100245.72
2023-02-20T00:12:48.193Z,100262.09
2023-02-20T00:15:16.393Z,100256.88
2023-02-20T00:17:47.743Z,100244.38
2023-02-20T00:20:16.759Z,100250.66
2023-02-20T00:22:44.397Z,100252.25
2023-02-20T00:25:11.880Z,100263.69
2023-02-20T00:27:39.399Z,100257.44
2023-02-20T00:30:07.797Z,100266.59
2023-02-20T00:32:35.000Z,100270.00
2023-02-20T00:35:02.334Z,100280.69
2023-02-20T00:37:29.649Z,100268.47
2023-02-20T00:39:57.082Z,100274.22
2023-02-20T00:42:24.740Z,100265.88
2023-02-20T00:44:52.090Z,100274.47
2023-02-20T00:47:19.651Z,100262.78
2023-02-20T00:49:47.190Z,100268.22
2023-02-20T00:52:15.100Z,100259.09
2023-02-20T00:54:42.655Z,100264.06
2023-02-20T00:57:09.975Z,100267.94
2023-02-20T00:59:37.771Z,100264.84
2023-02-20T01:02:05.430Z,100273.38
2023-02-20T01:04:32.658Z,100264.53
2023-02-20T01:07:00.228Z,100268.47
2023-02-20T01:09:28.394Z,100271.31
2023-02-20T01:11:56.113Z,100293.47
2023-02-20T01:14:23.435Z,100288.78
2023-02-20T01:16:52.558Z,100292.44
2023-02-20T01:19:21.438Z,100297.13
2023-02-20T01:21:49.116Z,100309.63
2023-02-20T01:24:17.115Z,100303.13
2023-02-20T01:26:46.445Z,100312.22
2023-02-20T01:29:14.451Z,100309.63
2023-02-20T01:31:47.970Z,100313.00
2023-02-20T01:34:15.669Z,100331.97
2023-02-20T01:36:53.452Z,100326.25
2023-02-20T01:39:23.454Z,100317.38
2023-02-20T01:41:54.029Z,100326.97
2023-02-20T01:44:24.137Z,100325.13
2023-02-20T01:46:56.891Z,100331.59
2023-02-20T01:49:37.997Z,100337.25
2023-02-20T01:52:22.682Z,100347.09
2023-02-20T01:55:17.957Z,100343.97
2023-02-20T01:57:53.670Z,100338.22
2023-02-20T02:00:24.484Z,100343.63
2023-02-20T02:02:59.151Z,100334.25
2023-02-20T02:05:26.670Z,100329.03
2023-02-20T02:07:54.154Z,100333.72
2023-02-20T02:10:26.966Z,100328.72
2023-02-20T02:12:55.440Z,100331.88
2023-02-20T02:15:24.481Z,100346.66
2023-02-20T02:18:25.416Z,100338.34
2023-02-20T02:21:17.818Z,100340.41
2023-02-20T02:24:22.487Z,100351.78
2023-02-20T02:27:11.429Z,100348.66
2023-02-20T02:30:23.807Z,100362.66
2023-02-20T02:33:32.140Z,100365.00
2023-02-20T02:36:20.929Z,100362.66
2023-02-20T02:39:04.166Z,100372.50
2023-02-20T02:42:02.327Z,100373.00
2023-02-20T02:45:02.173Z,100364.66
2023-02-20T02:47:56.940Z,100365.13
2023-02-20T02:50:28.383Z,100368.00
2023-02-20T02:52:56.460Z,100380.97
2023-02-20T02:55:29.512Z,100381.25
2023-02-20T02:57:56.998Z,100382.06
2023-02-20T03:00:46.134Z,100383.63
2023-02-20T03:03:18.840Z,100387.53
2023-02-20T03:06:04.705Z,100391.72
2023-02-20T03:08:35.051Z,100392.78
2023-02-20T03:11:12.002Z,100391.28
2023-02-20T03:14:15.843Z,100393.34
2023-02-20T03:17:09.198Z,100389.75
2023-02-20T03:19:48.847Z,100382.97
2023-02-20T03:22:24.016Z,100388.16
2023-02-20T03:24:56.853Z,100387.88
2023-02-20T03:27:53.210Z,100384.75
2023-02-20T03:30:29.615Z,100380.84
2023-02-20T03:33:30.979Z,100384.47
2023-02-20T03:36:18.861Z,100380.81
2023-02-20T03:39:12.636Z,100388.56
2023-02-20T03:41:59.822Z,100392.69
2023-02-20T03:44:28.377Z,100398.91
2023-02-20T03:46:56.228Z,100398.66
2023-02-20T03:49:28.552Z,100398.41
2023-02-20T03:51:59.241Z,100410.09
2023-02-20T03:54:27.732Z,100411.41
2023-02-20T03:56:58.236Z,100409.88
2023-02-20T03:59:49.049Z,100422.34
2023-02-20T04:02:40.260Z,100414.63
2023-02-20T04:05:10.874Z,100415.69
2023-02-20T04:07:53.878Z,100411.00
2023-02-20T04:10:26.070Z,100413.91
2023-02-20T04:12:54.251Z,100410.53
2023-02-20T04:15:23.057Z,100410.50
2023-02-20T04:17:53.570Z,100398.53
2023-02-20T04:20:21.358Z,100398.81
2023-02-20T04:22:50.062Z,100393.91
2023-02-20T04:25:50.001Z,100393.72
2023-02-20T04:28:17.888Z,100392.19
2023-02-20T04:30:45.712Z,100404.72
2023-02-20T04:33:14.887Z,100409.69
2023-02-20T04:35:42.937Z,100408.16
2023-02-20T04:38:11.790Z,100405.09
2023-02-20T04:40:39.321Z,100409.50
2023-02-20T04:43:06.891Z,100401.75
2023-02-20T04:45:34.263Z,100404.56
2023-02-20T04:48:02.068Z,100403.59
2023-02-20T04:50:31.806Z,100398.41
2023-02-20T04:53:00.006Z,100398.94
2023-02-20T04:55:28.123Z,100387.00
2023-02-20T04:57:56.587Z,100384.41
2023-02-20T05:00:25.440Z,100393.28
2023-02-20T05:02:52.984Z,100385.97
2023-02-20T05:05:25.990Z,100391.44
2023-02-20T05:08:01.752Z,100384.16
2023-02-20T05:10:30.598Z,100385.44
2023-02-20T05:12:58.923Z,100380.75
2023-02-20T05:15:27.258Z,100385.22
2023-02-20T05:17:54.911Z,100388.56
2023-02-20T05:20:42.930Z,100402.09
2023-02-20T05:23:10.609Z,100395.59
2023-02-20T05:25:38.394Z,100390.41
2023-02-20T05:28:05.704Z,100396.66
2023-02-20T05:30:33.150Z,100400.56
2023-02-20T05:33:00.922Z,100404.75
2023-02-20T05:35:28.617Z,100399.56
2023-02-20T05:37:55.928Z,100409.72
2023-02-20T05:40:23.620Z,100410.50
2023-02-20T05:42:51.020Z,100412.59
2023-02-20T05:45:19.464Z,100405.28
2023-02-20T05:47:47.018Z,100405.56
2023-02-20T05:50:14.493Z,100406.59
2023-02-20T05:52:42.630Z,100415.72
2023-02-20T05:55:09.771Z,100419.59
2023-02-20T05:57:37.318Z,100411.56
2023-02-20T06:00:05.492Z,100413.94
2023-02-20T06:02:34.336Z,100423.81
2023-02-20T06:05:02.035Z,100425.63
2023-02-20T06:07:29.734Z,100433.72
2023-02-20T06:09:58.250Z,100433.44
2023-02-20T06:12:25.940Z,100440.47
2023-02-20T06:14:53.782Z,100432.41
2023-02-20T06:17:21.237Z,100436.56
2023-02-20T06:19:50.425Z,100433.47
2023-02-20T06:22:18.651Z,100436.56
2023-02-20T06:24:47.655Z,100442.78
2023-02-20T06:27:16.948Z,100442.56
2023-02-20T06:29:47.126Z,100441.53
2023-02-20T06:32:14.301Z,100443.88
2023-02-20T06:34:41.531Z,100441.78
2023-02-20T06:37:08.486Z,100442.84
2023-02-20T06:39:35.562Z,100443.09
2023-02-20T06:42:02.930Z,100442.00
2023-02-20T06:44:30.884Z,100444.72
2023-02-20T06:46:57.930Z,100447.22
2023-02-20T06:49:27.582Z,100441.91
2023-02-20T06:51:54.915Z,100444.41
2023-02-20T06:54:22.413Z,100446.81
2023-02-20T06:56:49.431Z,100450.00
2023-02-20T06:59:18.974Z,100457.88
2023-02-20T07:01:46.014Z,100464.44
2023-02-20T07:04:22.827Z,100463.81
2023-02-20T07:06:50.178Z,100464.34
2023-02-20T07:09:17.627Z,100453.03
2023-02-20T07:11:44.684Z,100451.63
2023-02-20T07:14:11.755Z,100459.84
2023-02-20T07:16:38.701Z,100460.88
2023-02-20T07:19:05.619Z,100448.63
2023-02-20T07:21:32.604Z,100464.03
2023-02-20T07:23:59.864Z,100463.06
2023-02-20T07:26:28.920Z,100465.16
2023-02-20T07:28:58.685Z,100473.41
2023-02-20T07:31:26.253Z,100468.09
2023-02-20T07:33:53.289Z,100464.91
2023-02-20T07:36:20.684Z,100472.16
2023-02-20T07:38:56.935Z,100471.19
2023-02-20T07:41:25.404Z,100462.84
2023-02-20T07:43:52.483Z,100464.91
2023-02-20T07:46:20.550Z,100465.66
2023-02-20T07:48:48.949Z,100459.22
2023-02-20T07:51:19.207Z,100457.56
2023-02-20T07:53:50.305Z,100458.50
2023-02-20T07:56:17.977Z,100469.06
2023-02-20T07:58:45.258Z,100461.25
2023-02-20T08:01:12.438Z,100472.06
2023-02-20T08:03:39.571Z,100475.31
2023-02-20T08:06:06.816Z,100475.81
2023-02-20T08:08:33.831Z,100472.50
2023-02-20T08:11:08.865Z,100469.75
2023-02-20T08:13:37.225Z,100467.31
2023-02-20T08:16:04.579Z,100466.59
2023-02-20T08:18:31.839Z,100458.34
2023-02-20T08:21:02.083Z,100452.78
2023-02-20T08:23:29.069Z,100456.13
2023-02-20T08:25:56.424Z,100453.44
2023-02-20T08:28:23.687Z,100459.31
2023-02-20T08:30:50.695Z,100462.28
2023-02-20T08:33:18.837Z,100464.06
2023-02-20T08:35:45.850Z,100461.22
2023-02-20T08:38:32.433Z,100455.13
2023-02-20T08:40:59.508Z,100444.84
2023-02-20T08:43:28.295Z,100445.84
2023-02-20T08:45:55.828Z,100444.38
2023-02-20T08:48:23.194Z,100451.53
2023-02-20T08:50:50.342Z,100443.72
2023-02-20T08:53:17.364Z,100440.16
2023-02-20T08:55:44.363Z,100452.53
2023-02-20T08:58:11.852Z,100443.56
2023-02-20T09:00:39.408Z,100448.03
2023-02-20T09:03:09.245Z,100432.38
2023-02-20T09:05:39.107Z,100440.91
2023-02-20T09:08:06.692Z,100439.22
2023-02-20T09:10:34.256Z,100437.09
2023-02-20T09:13:02.166Z,100429.75
2023-02-20T09:15:29.276Z,100430.19
2023-02-20T09:17:56.182Z,100424.06
2023-02-20T09:20:23.148Z,100417.53
2023-02-20T09:22:51.005Z,100414.81
2023-02-20T09:25:18.555Z,100411.81
2023-02-20T09:27:45.561Z,100407.94
2023-02-20T09:30:19.817Z,100399.97
2023-02-20T09:32:50.549Z,100404.66
2023-02-20T09:35:22.550Z,100406.13
2023-02-20T09:37:50.470Z,100409.72
2023-02-20T09:40:18.006Z,100410.25
2023-02-20T09:43:00.423Z,100403.00
2023-02-20T09:45:31.334Z,100406.09
2023-02-20T09:48:16.802Z,100406.22
2023-02-20T09:50:48.687Z,100412.78
2023-02-20T09:53:26.996Z,100406.22
2023-02-20T09:55:55.569Z,100389.91
2023-02-20T09:58:28.679Z,100383.75
2023-02-20T10:01:00.290Z,100387.31
2023-02-20T10:03:35.286Z,100374.69
2023-02-20T10:06:09.030Z,100381.59
2023-02-20T10:08:35.971Z,100371.03
2023-02-20T10:11:07.318Z,100372.34
2023-02-20T10:13:38.319Z,100371.94
2023-02-20T10:16:05.378Z,100365.56
2023-02-20T10:18:46.185Z,100377.03
2023-02-20T10:21:16.441Z,100377.28
2023-02-20T10:24:04.816Z,100367.88
2023-02-20T10:26:35.492Z,100359.59
2023-02-20T10:29:15.758Z,100360.81
2023-02-20T10:31:46.542Z,100357.28
2023-02-20T10:34:18.931Z,100355.31
2023-02-20T10:36:51.880Z,100344.84
2023-02-20T10:39:22.225Z,100337.31
2023-02-20T10:42:00.354Z,100325.66
2023-02-20T10:44:51.072Z,100328.88
2023-02-20T10:47:32.936Z,100320.06
2023-02-20T10:50:02.285Z,100314.31
2023-02-20T10:52:34.926Z,100308.19
2023-02-20T10:55:08.386Z,100306.72
2023-02-20T10:57:48.603Z,100299.31
2023-02-20T11:00:33.207Z,100288.00
2023-02-20T11:03:06.336Z,100284.56
2023-02-20T11:05:38.029Z,100285.81
2023-02-20T11:08:04.834Z,100277.00
2023-02-20T11:10:32.741Z,100270.91
2023-02-20T11:13:03.793Z,100257.22
2023-02-20T11:15:32.905Z,100247.81
2023-02-20T11:18:00.598Z,100249.47
2023-02-20T11:20:33.621Z,100238.34
2023-02-20T11:23:04.475Z,100229.44
2023-02-20T11:25:36.714Z,100231.94
2023-02-20T11:28:11.849Z,100237.19
2023-02-20T11:30:43.298Z,100240.28
2023-02-20T11:33:24.443Z,100241.81
2023-02-20T11:35:56.177Z,100233.47
2023-02-20T11:38:23.040Z,100229.91
2023-02-20T11:41:01.846Z,100219.41
2023-02-20T11:43:36.277Z,100216.00
2023-02-20T11:46:16.829Z,100201.66
2023-02-20T11:49:12.122Z,100192.06
2023-02-20T11:51:41.077Z,100185.28
2023-02-20T11:54:17.159Z,100187.09
2023-02-20T11:57:05.104Z,100188.03
2023-02-20T11:59:36.649Z,100180.56
2023-02-20T12:02:16.028Z,100175.03
2023-02-20T12:05:07.741Z,100165.59
2023-02-20T12:07:46.289Z,100162.50
2023-02-20T12:10:33.862Z,100167.75
2023-02-20T12:13:00.884Z,100149.97
2023-02-20T12:15:29.172Z,100153.16
2023-02-20T12:18:11.386Z,100133.03
2023-02-20T12:20:44.659Z,100128.47
2023-02-20T12:23:17.117Z,100127.75
2023-02-20T12:25:57.352Z,100125.00
2023-02-20T12:28:44.768Z,100116.28
2023-02-20T12:31:26.882Z,100113.91
2023-02-20T12:34:19.587Z,100111.56
2023-02-20T12:36:57.062Z,100120.78
2023-02-20T12:39:53.778Z,100129.69
2023-02-20T12:42:47.164Z,100122.56
2023-02-20T12:45:14.378Z,100107.75
2023-02-20T12:47:46.307Z,100121.91
2023-02-20T12:50:16.282Z,100113.91
2023-02-20T12:53:24.160Z,100103.28
2023-02-20T12:56:16.680Z,100099.19
2023-02-20T12:59:15.167Z,100098.06
2023-02-20T13:01:42.483Z,100107.47
2023-02-20T13:04:24.934Z,100100.28
2023-02-20T13:06:56.836Z,100107.81
2023-02-20T13:09:30.171Z,100118.44
2023-02-20T13:12:14.072Z,100107.25
2023-02-20T13:15:11.176Z,100088.75
2023-02-20T13:17:53.294Z,100082.03
2023-02-20T13:20:28.395Z,100079.66
2023-02-20T13:23:09.617Z,100074.75
2023-02-20T13:25:47.016Z,100075.13
2023-02-20T13:28:28.356Z,100065.31
2023-02-20T13:31:16.315Z,100074.09
2023-02-20T13:33:45.930Z,100070.88
2023-02-20T13:36:28.329Z,100062.38
2023-02-20T13:39:26.213Z,100061.47
2023-02-20T13:41:56.205Z,100059.78
2023-02-20T13:44:35.645Z,100047.34
2023-02-20T13:47:28.151Z,100057.25
2023-02-20T13:50:00.445Z,100043.50
2023-02-20T13:52:40.148Z,100022.22
2023-02-20T13:55:10.616Z,100017.38
2023-02-20T13:57:50.827Z,100009.91
2023-02-20T14:00:27.171Z,100010.97
2023-02-20T14:02:55.648Z,100008.56
2023-02-20T14:05:28.021Z,100002.59
2023-02-20T14:07:55.480Z,99996.06
2023-02-20T14:10:33.416Z,100006.66
2023-02-20T14:13:09.258Z,100013.50
2023-02-20T14:15:51.703Z,100018.38
2023-02-20T14:18:29.540Z,100016.75
2023-02-20T14:21:09.095Z,100001.31
2023-02-20T14:23:36.560Z,100001.59
2023-02-20T14:26:06.321Z,99999.13
2023-02-20T14:28:35.313Z,99993.81
2023-02-20T14:31:20.498Z,99988.44
2023-02-20T14:33:52.580Z,99989.75
2023-02-20T14:36:50.423Z,99988.25
2023-02-20T14:39:23.070Z,99981.31
2023-02-20T14:41:55.691Z,99983.75
2023-02-20T14:44:24.273Z,99982.13
2023-02-20T14:46:56.515Z,99989.00
2023-02-20T14:49:31.331Z,99987.91
2023-02-20T14:52:11.407Z,99979.34
2023-02-20T14:54:39.476Z,99973.09
2023-02-20T14:57:06.718Z,99963.47
2023-02-20T14:59:40.307Z,99967.94
2023-02-20T15:02:33.142Z,99965.81
2023-02-20T15:05:06.690Z,99965.59
2023-02-20T15:07:34.083Z,99965.50
2023-02-20T15:10:05.833Z,99971.88
2023-02-20T15:12:35.394Z,99951.81
2023-02-20T15:15:04.432Z,99955.03
2023-02-20T15:17:32.922Z,99951.88
2023-02-20T15:19:59.792Z,99953.06
2023-02-20T15:22:37.143Z,99944.81
2023-02-20T15:25:25.287Z,99941.63
2023-02-20T15:28:11.706Z,99940.16
2023-02-20T15:31:10.003Z,99943.38
2023-02-20T15:33:41.078Z,99933.53
2023-02-20T15:36:23.341Z,99929.94
2023-02-20T15:38:56.094Z,99925.91
2023-02-20T15:41:24.045Z,99920.16
2023-02-20T15:43:53.683Z,99902.59
2023-02-20T15:46:21.460Z,99910.03
2023-02-20T15:48:48.699Z,99902.06
2023-02-20T15:51:20.744Z,99893.50
2023-02-20T15:53:48.294Z,99887.97
2023-02-20T15:56:16.629Z,99891.50
2023-02-20T15:58:46.421Z,99877.50
2023-02-20T16:01:14.770Z,99870.91
2023-02-20T16:03:51.686Z,99874.72
2023-02-20T16:06:23.430Z,99863.94
2023-02-20T16:08:52.312Z,99862.59
2023-02-20T16:11:21.520Z,99861.25
2023-02-20T16:13:53.672Z,99855.81
2023-02-20T16:16:24.771Z,99849.19
2023-02-20T16:18:55.044Z,99851.88
2023-02-20T16:21:23.944Z,99846.38
2023-02-20T16:23:51.754Z,99837.03
2023-02-20T16:26:21.014Z,99831.34
2023-02-20T16:28:55.755Z,99832.81
2023-02-20T16:31:55.114Z,99827.31
2023-02-20T16:34:25.292Z,99824.72
2023-02-20T16:36:53.447Z,99828.66
2023-02-20T16:39:27.053Z,99818.16
2023-02-20T16:41:55.589Z,99814.31
2023-02-20T16:44:36.577Z,99808.47
2023-02-20T16:47:03.882Z,99805.09
2023-02-20T16:49:37.268Z,99806.38
2023-02-20T16:52:17.642Z,99819.69
2023-02-20T16:54:49.626Z,99822.53
2023-02-20T16:57:17.437Z,99822.25
2023-02-20T16:59:44.953Z,99817.78
2023-02-20T17:02:18.266Z,99816.25
2023-02-20T17:04:46.365Z,99819.53
2023-02-20T17:07:14.315Z,99813.69
2023-02-20T17:09:45.889Z,99813.22
2023-02-20T17:12:17.303Z,99805.69
2023-02-20T17:14:45.714Z,99802.75
2023-02-20T17:17:14.480Z,99798.75
2023-02-20T17:19:42.791Z,99796.25
2023-02-20T17:22:11.212Z,99801.06
2023-02-20T17:24:43.491Z,99802.91
2023-02-20T17:27:11.834Z,99801.81
2023-02-20T17:29:40.321Z,99808.31
2023-02-20T17:32:07.910Z,99808.75
2023-02-20T17:34:35.615Z,99803.69
2023-02-20T17:37:06.584Z,99813.34
2023-02-20T17:39:34.654Z,99801.78
2023-02-20T17:42:02.333Z,99815.34
2023-02-20T17:44:30.695Z,99812.38
2023-02-20T17:47:00.128Z,99803.56
2023-02-20T17:49:29.818Z,99802.19
2023-02-20T17:52:01.309Z,99804.94
2023-02-20T17:54:32.094Z,99805.38
2023-02-20T17:57:00.659Z,99810.47
2023-02-20T17:59:28.498Z,99805.97
2023-02-20T18:01:56.496Z,99805.81
2023-02-20T18:04:25.596Z,99803.03
2023-02-20T18:06:54.593Z,99801.47
2023-02-20T18:09:22.831Z,99795.78
2023-02-20T18:11:52.142Z,99787.72
2023-02-20T18:14:20.620Z,99786.50
2023-02-20T18:16:48.417Z,99786.97
2023-02-20T18:19:17.972Z,99773.72
2023-02-20T18:21:49.506Z,99774.34
2023-02-20T18:24:19.298Z,99772.78
2023-02-20T18:26:47.511Z,99780.19
2023-02-20T18:29:15.683Z,99766.75
2023-02-20T18:31:44.909Z,99760.44
2023-02-20T18:34:13.845Z,99761.97
2023-02-20T18:36:41.951Z,99756.56
2023-02-20T18:39:10.367Z,99760.75
2023-02-20T18:41:38.165Z,99749.94
2023-02-20T18:44:06.687Z,99752.13
2023-02-20T18:46:39.860Z,99753.78
2023-02-20T18:49:09.173Z,99747.66
2023-02-20T18:51:39.615Z,99749.66
2023-02-20T18:54:09.858Z,99736.72
2023-02-20T18:56:39.251Z,99736.72
2023-02-20T18:59:07.179Z,99736.84
2023-02-20T19:01:34.932Z,99734.06
2023-02-20T19:04:03.280Z,99723.44
2023-02-20T19:06:45.011Z,99724.22
2023-02-20T19:09:18.096Z,99719.25
2023-02-20T19:11:52.866Z,99719.25
2023-02-20T19:14:21.376Z,99709.41
2023-02-20T19:16:56.690Z,99714.50
2023-02-20T19:19:27.543Z,99711.16
2023-02-20T19:21:55.883Z,99721.78
2023-02-20T19:24:24.393Z,99713.06
2023-02-20T19:26:52.514Z,99703.66
2023-02-20T19:29:20.892Z,99705.03
2023-02-20T19:31:48.723Z,99702.28
2023-02-20T19:34:17.191Z,99696.56
2023-02-20T19:36:45.205Z,99693.75
2023-02-20T19:39:14.216Z,99691.41
2023-02-20T19:41:42.219Z,99696.94
2023-02-20T19:44:13.651Z,99689.47
2023-02-20T19:46:41.559Z,99682.22
2023-02-20T19:49:13.213Z,99683.84
2023-02-20T19:51:46.402Z,99683.50
2023-02-20T19:54:15.218Z,99683.16
2023-02-20T19:56:47.661Z,99680.66
2023-02-20T19:59:15.409Z,99679.84
2023-02-20T20:01:59.455Z,99683.34
2023-02-20T20:04:30.688Z,99673.03
2023-02-20T20:06:59.422Z,99674.69
2023-02-20T20:09:36.259Z,99668.69
2023-02-20T20:12:26.686Z,99669.75
2023-02-20T20:14:56.424Z,99669.28
2023-02-20T20:17:24.925Z,99669.28
2023-02-20T20:20:00.385Z,99667.25
2023-02-20T20:22:29.455Z,99664.19
2023-02-20T20:24:57.686Z,99672.13
2023-02-20T20:27:25.649Z,99669.06
2023-02-20T20:29:53.425Z,99664.41
2023-02-20T20:32:22.026Z,99657.66
2023-02-20T20:34:55.702Z,99657.66
2023-02-20T20:37:24.762Z,99654.56
2023-02-20T20:39:53.448Z,99665.00
2023-02-20T20:42:23.941Z,99654.56
2023-02-20T20:44:53.183Z,99655.31
2023-02-20T20:47:22.428Z,99648.25
2023-02-20T20:49:50.141Z,99645.94
2023-02-20T20:52:18.257Z,99647.13
2023-02-20T20:54:49.960Z,99642.78
2023-02-20T20:57:19.013Z,99647.56
2023-02-20T20:59:47.606Z,99641.25
2023-02-20T21:02:16.953Z,99642.78
2023-02-20T21:04:50.954Z,99640.66
2023-02-20T21:07:20.961Z,99648.78
2023-02-20T21:09:48.381Z,99641.84
2023-02-20T21:12:16.153Z,99640.28
2023-02-20T21:14:44.273Z,99631.38
2023-02-20T21:17:13.363Z,99635.06
2023-02-20T21:19:41.706Z,99638.16
2023-02-20T21:22:09.626Z,99634.50
2023-02-20T21:24:38.281Z,99630.63
2023-02-20T21:27:05.972Z,99618.31
2023-02-20T21:29:35.161Z,99622.78
2023-02-20T21:32:03.486Z,99619.88
2023-02-20T21:34:31.166Z,99615.88
2023-02-20T21:36:58.825Z,99624.06
2023-02-20T21:39:27.301Z,99614.88
2023-02-20T21:42:13.465Z,99621.56
2023-02-20T21:44:42.985Z,99619.13
2023-02-20T21:47:10.713Z,99616.56
2023-02-20T21:49:43.173Z,99618.75
2023-02-20T21:52:10.837Z,99621.56
2023-02-20T21:54:39.305Z,99609.59
2023-02-20T21:57:06.840Z,99613.19
2023-02-20T21:59:34.308Z,99611.38
2023-02-20T22:02:01.867Z,99603.09
2023-02-20T22:04:29.308Z,99597.22
2023-02-20T22:07:15.473Z,99591.25
2023-02-20T22:10:01.439Z,99584.31
2023-02-20T22:12:48.486Z,99579.88
2023-02-20T22:15:34.646Z,99576.94
2023-02-20T22:18:20.648Z,99577.41
2023-02-20T22:21:06.463Z,99568.78
2023-02-20T22:23:52.657Z,99564.63
2023-02-20T22:26:39.330Z,99566.47
2023-02-20T22:29:25.498Z,99559.41
2023-02-20T22:32:11.690Z,99556.00
2023-02-20T22:35:10.612Z,99549.84
2023-02-20T22:37:57.499Z,99557.22
2023-02-20T22:40:43.495Z,99547.81
2023-02-20T22:43:29.503Z,99544.75
2023-02-20T22:46:15.568Z,99541.84
2023-02-20T22:49:01.997Z,99536.13
2023-02-20T22:51:48.281Z,99542.59
2023-02-20T22:54:34.346Z,99530.59
2023-02-20T22:57:20.363Z,99532.09
2023-02-20T23:00:06.511Z,99530.59
2023-02-20T23:02:52.604Z,99537.97
2023-02-20T23:05:38.781Z,99540.91
2023-02-20T23:08:25.515Z,99548.28
2023-02-20T23:11:11.705Z,99549.06
2023-02-20T23:13:58.297Z,99547.81
2023-02-20T23:16:44.357Z,99533.03
2023-02-20T23:19:30.070Z,99536.44
2023-02-20T23:22:16.068Z,99531.03
2023-02-20T23:25:02.153Z,99531.47
2023-02-20T23:27:47.798Z,99532.84
2023-02-20T23:30:34.261Z,99526.06
2023-02-20T23:33:20.306Z,99515.00
2023-02-20T23:36:06.231Z,99526.50
2023-02-20T23:38:51.794Z,99526.16
2023-02-20T23:41:37.795Z,99539.16
2023-02-20T23:44:25.533Z,99536.47
2023-02-20T23:47:11.161Z,99532.59
2023-02-20T23:49:56.795Z,99530.47
2023-02-20T23:52:42.927Z,99528.19
2023-02-20T23:55:28.534Z,99526.50
2023-02-20T23:58:14.691Z,99528.88
